No se requiere un especial cuidado respecto a la situación meteorológica.   -   No hay avisos

Informes METAR

 

LEZL - Sevilla, Spain
Distancia de la estación: ENE 8km
Actualización: 23/05/2017 04:30
Despejado
Despejado
 Viento de variable
Viento: variable 2 km/h
Temperatura: 18°C
Rocío: 16°C
Humedad: 88%
Barómetro: 1014 hPa
Resumen: Despejado
Visibilidad: mayor de 10 km
2017/05/23 02:30 LEZL 230230Z VRB01KT CAVOK 18/16 Q1014 NOSIG
LEMO - Morón, Spain
Distancia de la estación: SE 43km
Actualización: 23/05/2017 05:00
Despejado
Despejado
 Viento de NNE
Viento: NNE 6 km/h
Temperatura: 13°C
Rocío: 11°C
Humedad: 88%
Barómetro: 1014 hPa
Resumen: Despejado
Visibilidad: mayor de 10 km
2017/05/23 03:00 LEMO 230300Z 02003KT CAVOK 13/11 Q1014 NOSIG
LEJR - Jeréz, Spain
Distancia de la estación: S 71km
Actualización: 23/05/2017 05:00
Despejado
Despejado
 Viento de variable
Viento: variable 4 km/h
Temperatura: 14°C
Rocío: 12°C
Humedad: 88%
Barómetro: 1014 hPa
Nubes: Despejado
Visibilidad: 10 km
2017/05/23 03:00 LEJR 230300Z AUTO VRB02KT 9999 NCD 14/12 Q1014
 
LERT - Rota, Spain
Distancia de la estación: SSO 89km
Actualización: 23/05/2017 04:00
Despejado
Despejado
 Viento de calm
Viento: Calma
Temperatura: 16°C
Rocío: 13°C
Humedad: 83%
Barómetro: 1014 hPa
Resumen: Despejado
Visibilidad: mayor de 10 km
2017/05/23 02:00 LERT 230200Z 00000KT CAVOK 16/13 Q1014 NOSIG
LEMG - Málaga, Spain
Distancia de la estación: ESE 157km
Actualización: 23/05/2017 04:30
Despejado
Despejado
 Viento de ONO
Viento: ONO 19 km/h
Temperatura: 15°C
Rocío: 12°C
Humedad: 82%
Barómetro: 1015 hPa
Resumen: Despejado
Visibilidad: mayor de 10 km
2017/05/23 02:30 LEMG 230230Z 30010KT CAVOK 15/12 Q1015 NOSIG
LEBA - Córdoba, Spain
Distancia de la estación: ENE 115km
Actualización: 23/05/2017 04:30
Despejado
Despejado
 Viento de variable
Viento: variable 4 km/h
Temperatura: 15°C
Rocío: 12°C
Humedad: 82%
Barómetro: 1014 hPa
Nubes: Despejado
Visibilidad: 10 km
2017/05/23 02:30 LEBA 230230Z AUTO VRB02KT 9999 NCD 15/12 Q1014
 
LEGR - Granada, Spain
Distancia de la estación: E 198km
Actualización: 23/05/2017 04:30
Despejado
Despejado
 Viento de calm
Viento: Calma
Temperatura: 14°C
Rocío: 7°C
Humedad: 63%
Barómetro: 1016 hPa
Nubes: Despejado
Visibilidad: 10 km
2017/05/23 02:30 LEGR 230230Z AUTO 00000KT 9999 NCD 14/07 Q1016
LEAM - Almería, Spain
Distancia de la estación: E 326km
Actualización: 23/05/2017 04:30
Despejado
Despejado
 Viento de E
Viento: E 6 km/h
Temperatura: 18°C
Rocío: 16°C
Humedad: 88%
Barómetro: 1016 hPa
Nubes: Despejado
Visibilidad: 10 km
2017/05/23 02:30 LEAM 230230Z AUTO 08003KT 030V120 9999 NCD 18/16 Q1016
LEMD - Madrid/Barajas, Spain
Distancia de la estación: NNE 402km
Actualización: 23/05/2017 04:30
Despejado
Despejado
 Viento de N
Viento: N 13 km/h
Temperatura: 19°C
Rocío: 8°C
Humedad: 49%
Barómetro: 1019 hPa
Resumen: Despejado
Visibilidad: mayor de 10 km
2017/05/23 02:30 LEMD 230230Z 36007KT CAVOK 19/08 Q1019 NOSIG
 
LEVD - Valladolid, Spain
Distancia de la estación: N 492km
Actualización: 22/05/2017 21:30
NOT Current
Despejado
Despejado
 Viento de NE
Viento: NE 20 km/h
Temperatura: 21°C
Rocío: 12°C
Humedad: 57%
Barómetro: 1018 hPa
Resumen: Despejado
Visibilidad: mayor de 10 km
2017/05/22 19:30 LEVD 221930Z 05011KT CAVOK 21/12 Q1018
LEBL - Barcelona, Spain
Distancia de la estación: NE 816km
Actualización: 23/05/2017 04:30
Poco nuboso
Poco nuboso
 Viento de N
Viento: N 6 km/h
Temperatura: 17°C
Rocío: 15°C
Humedad: 88%
Barómetro: 1018 hPa
Nubes: Poco nuboso
Visibilidad: 10 km
Detalles de las nubes: Poco nuboso 610 m
2017/05/23 02:30 LEBL 230230Z 35003KT 9999 FEW020 17/15 Q1018 NOSIG
LEVC - Valencia, Spain
Distancia de la estación: ENE 535km
Actualización: 23/05/2017 04:30
Poco nuboso
Poco nuboso
 Viento de calm
Viento: Calma
Temperatura: 15°C
Rocío: 13°C
Humedad: 88%
Barómetro: 1018 hPa
Nubes: Poco nuboso
Visibilidad: 10 km
Detalles de las nubes: Poco nuboso 366 m
2017/05/23 02:30 LEVC 230230Z 00000KT 9999 FEW012 15/13 Q1018 NOSIG